sensor_id;sensor_type;location;lat;lon;timestamp;temperature;humidity
45983;DHT22;31711;47.158;7.346;2022-12-17T11:45:25;0.00;99.90
45983;DHT22;31711;47.158;7.346;2022-12-17T11:48:24;0.10;99.90
45983;DHT22;31711;47.158;7.346;2022-12-17T11:51:17;0.00;99.90
45983;DHT22;31711;47.158;7.346;2022-12-17T11:54:18;0.10;99.90
45983;DHT22;31711;47.158;7.346;2022-12-17T11:57:26;0.10;99.90
45983;DHT22;31711;47.158;7.346;2022-12-17T12:00:20;0.00;99.90
45983;DHT22;31711;47.158;7.346;2022-12-17T12:06:32;0.00;99.90
45983;DHT22;31711;47.158;7.346;2022-12-17T12:15:33;0.00;99.90
45983;DHT22;31711;47.158;7.346;2022-12-17T12:19:01;0.00;99.90
45983;DHT22;31711;47.158;7.346;2022-12-17T12:21:57;0.00;99.90
45983;DHT22;31711;47.158;7.346;2022-12-17T12:30:37;0.00;99.90
45983;DHT22;31711;47.158;7.346;2022-12-17T12:33:55;0.10;99.90
45983;DHT22;31711;47.158;7.346;2022-12-17T12:36:41;0.10;99.90
45983;DHT22;31711;47.158;7.346;2022-12-17T12:39:39;0.10;99.90
45983;DHT22;31711;47.158;7.346;2022-12-17T12:42:54;0.00;99.90
45983;DHT22;31711;47.158;7.346;2022-12-17T12:45:46;0.00;99.90
45983;DHT22;31711;47.158;7.346;2022-12-17T12:48:58;0.20;99.90
45983;DHT22;31711;47.158;7.346;2022-12-17T12:51:47;0.30;99.90
45983;DHT22;31711;47.158;7.346;2022-12-17T13:06:52;0.20;99.90
45983;DHT22;31711;47.158;7.346;2022-12-17T13:19:57;0.00;99.90
45983;DHT22;31711;47.158;7.346;2022-12-17T13:27:39;0.10;99.90
45983;DHT22;31711;47.158;7.346;2022-12-17T13:32:52;0.10;99.90
45983;DHT22;31711;47.158;7.346;2022-12-17T13:35:48;0.00;99.90
45983;DHT22;31711;47.158;7.346;2022-12-17T13:43:39;0.00;99.90
45983;DHT22;31711;47.158;7.346;2022-12-17T13:46:19;0.00;99.90
45983;DHT22;31711;47.158;7.346;2022-12-17T13:49:01;0.00;99.90
45983;DHT22;31711;47.158;7.346;2022-12-17T13:51:29;0.00;99.90
45983;DHT22;31711;47.158;7.346;2022-12-17T13:54:00;0.10;99.90
45983;DHT22;31711;47.158;7.346;2022-12-17T13:56:33;0.10;99.90
45983;DHT22;31711;47.158;7.346;2022-12-17T13:59:01;0.00;99.90
45983;DHT22;31711;47.158;7.346;2022-12-17T14:01:28;0.00;99.90
45983;DHT22;31711;47.158;7.346;2022-12-17T14:03:59;0.00;99.90
45983;DHT22;31711;47.158;7.346;2022-12-17T14:06:34;-0.10;99.90
45983;DHT22;31711;47.158;7.346;2022-12-17T14:09:01;0.00;99.90
45983;DHT22;31711;47.158;7.346;2022-12-17T14:11:29;0.00;99.90
45983;DHT22;31711;47.158;7.346;2022-12-17T14:14:28;-0.10;99.90
45983;DHT22;31711;47.158;7.346;2022-12-17T14:16:55;-0.10;99.90
45983;DHT22;31711;47.158;7.346;2022-12-17T14:19:22;-0.10;99.90
45983;DHT22;31711;47.158;7.346;2022-12-17T14:21:49;-0.20;99.90
45983;DHT22;31711;47.158;7.346;2022-12-17T14:24:19;-0.20;99.90
45983;DHT22;31711;47.158;7.346;2022-12-17T14:26:57;-0.20;99.90
45983;DHT22;31711;47.158;7.346;2022-12-17T14:29:26;-0.20;99.90
45983;DHT22;31711;47.158;7.346;2022-12-17T14:32:00;-0.20;99.90
45983;DHT22;31711;47.158;7.346;2022-12-17T14:34:26;-0.20;99.90
45983;DHT22;31711;47.158;7.346;2022-12-17T14:36:58;-0.30;99.90
45983;DHT22;31711;47.158;7.346;2022-12-17T14:39:27;-0.20;99.90
45983;DHT22;31711;47.158;7.346;2022-12-17T14:41:58;-0.20;99.90
45983;DHT22;31711;47.158;7.346;2022-12-17T14:47:25;-0.20;99.90
45983;DHT22;31711;47.158;7.346;2022-12-17T14:57:49;-0.30;99.90
45983;DHT22;31711;47.158;7.346;2022-12-17T15:00:16;-0.30;99.90
45983;DHT22;31711;47.158;7.346;2022-12-17T15:02:43;-0.30;99.90
45983;DHT22;31711;47.158;7.346;2022-12-17T15:05:14;-0.30;99.90
45983;DHT22;31711;47.158;7.346;2022-12-17T15:07:40;-0.30;99.90
45983;DHT22;31711;47.158;7.346;2022-12-17T15:10:15;-0.30;99.90
45983;DHT22;31711;47.158;7.346;2022-12-17T15:12:43;-0.30;99.90
45983;DHT22;31711;47.158;7.346;2022-12-17T15:15:14;-0.30;99.90
45983;DHT22;31711;47.158;7.346;2022-12-17T15:17:40;-0.30;99.90
45983;DHT22;31711;47.158;7.346;2022-12-17T15:20:09;-0.30;99.90
45983;DHT22;31711;47.158;7.346;2022-12-17T15:22:41;-0.30;99.90
45983;DHT22;31711;47.158;7.346;2022-12-17T15:25:13;-0.30;99.90
45983;DHT22;31711;47.158;7.346;2022-12-17T15:27:39;-0.30;99.90
45983;DHT22;31711;47.158;7.346;2022-12-17T15:30:06;-0.30;99.90
45983;DHT22;31711;47.158;7.346;2022-12-17T15:32:32;-0.30;99.90
45983;DHT22;31711;47.158;7.346;2022-12-17T15:34:58;-0.30;99.90
45983;DHT22;31711;47.158;7.346;2022-12-17T15:37:24;-0.30;99.90
45983;DHT22;31711;47.158;7.346;2022-12-17T15:39:50;-0.40;99.90
45983;DHT22;31711;47.158;7.346;2022-12-17T15:42:16;-0.40;99.90
45983;DHT22;31711;47.158;7.346;2022-12-17T15:45:00;-0.40;99.90
45983;DHT22;31711;47.158;7.346;2022-12-17T15:47:26;-0.40;99.90
45983;DHT22;31711;47.158;7.346;2022-12-17T15:49:52;-0.40;99.90
45983;DHT22;31711;47.158;7.346;2022-12-17T15:52:18;-0.40;99.90
45983;DHT22;31711;47.158;7.346;2022-12-17T15:54:44;-0.40;99.90
45983;DHT22;31711;47.158;7.346;2022-12-17T15:57:10;-0.40;99.90
45983;DHT22;31711;47.158;7.346;2022-12-17T15:59:36;-0.30;99.90
45983;DHT22;31711;47.158;7.346;2022-12-17T16:02:02;-0.40;99.90
45983;DHT22;31711;47.158;7.346;2022-12-17T16:04:28;-0.40;99.90
45983;DHT22;31711;47.158;7.346;2022-12-17T16:06:54;-0.40;99.90
45983;DHT22;31711;47.158;7.346;2022-12-17T16:09:20;-0.50;99.90
45983;DHT22;31711;47.158;7.346;2022-12-17T16:11:55;-0.40;99.90
45983;DHT22;31711;47.158;7.346;2022-12-17T16:14:24;-0.40;99.90
45983;DHT22;31711;47.158;7.346;2022-12-17T16:16:50;-0.40;99.90
45983;DHT22;31711;47.158;7.346;2022-12-17T16:19:16;-0.40;99.90
45983;DHT22;31711;47.158;7.346;2022-12-17T16:21:43;-0.40;99.90
45983;DHT22;31711;47.158;7.346;2022-12-17T16:24:09;-0.50;99.90
45983;DHT22;31711;47.158;7.346;2022-12-17T16:26:37;-0.40;99.90
45983;DHT22;31711;47.158;7.346;2022-12-17T16:29:03;-0.40;99.90
45983;DHT22;31711;47.158;7.346;2022-12-17T16:31:30;-0.40;99.90
45983;DHT22;31711;47.158;7.346;2022-12-17T16:33:56;-0.40;99.90
45983;DHT22;31711;47.158;7.346;2022-12-17T16:36:22;-0.30;99.90
45983;DHT22;31711;47.158;7.346;2022-12-17T16:38:50;-0.30;99.90
45983;DHT22;31711;47.158;7.346;2022-12-17T16:41:17;-0.40;99.90
45983;DHT22;31711;47.158;7.346;2022-12-17T16:43:43;-0.40;99.90
45983;DHT22;31711;47.158;7.346;2022-12-17T16:46:29;-0.30;99.90
45983;DHT22;31711;47.158;7.346;2022-12-17T16:48:58;-0.30;99.90
45983;DHT22;31711;47.158;7.346;2022-12-17T16:51:26;-0.40;99.90
45983;DHT22;31711;47.158;7.346;2022-12-17T16:53:52;-0.30;99.90
45983;DHT22;31711;47.158;7.346;2022-12-17T16:56:22;-0.30;99.90
45983;DHT22;31711;47.158;7.346;2022-12-17T16:58:48;-0.20;99.90
45983;DHT22;31711;47.158;7.346;2022-12-17T17:01:19;-0.20;99.90
45983;DHT22;31711;47.158;7.346;2022-12-17T17:03:45;-0.20;99.90
45983;DHT22;31711;47.158;7.346;2022-12-17T17:06:11;-0.20;99.90
45983;DHT22;31711;47.158;7.346;2022-12-17T17:08:38;-0.20;99.90
45983;DHT22;31711;47.158;7.346;2022-12-17T17:11:15;-0.20;99.90
45983;DHT22;31711;47.158;7.346;2022-12-17T17:13:44;-0.20;99.90
45983;DHT22;31711;47.158;7.346;2022-12-17T17:16:10;-0.20;99.90
45983;DHT22;31711;47.158;7.346;2022-12-17T17:18:36;-0.30;99.90
45983;DHT22;31711;47.158;7.346;2022-12-17T17:21:19;-0.30;99.90
45983;DHT22;31711;47.158;7.346;2022-12-17T17:24:02;-0.30;99.90
45983;DHT22;31711;47.158;7.346;2022-12-17T17:26:30;-0.20;99.90
45983;DHT22;31711;47.158;7.346;2022-12-17T17:28:57;-0.10;99.90
45983;DHT22;31711;47.158;7.346;2022-12-17T17:31:23;-0.20;99.90
45983;DHT22;31711;47.158;7.346;2022-12-17T17:33:50;-0.10;99.90
45983;DHT22;31711;47.158;7.346;2022-12-17T17:36:18;-0.20;99.90
45983;DHT22;31711;47.158;7.346;2022-12-17T17:38:45;-0.20;99.90
45983;DHT22;31711;47.158;7.346;2022-12-17T17:41:13;-0.10;99.90
45983;DHT22;31711;47.158;7.346;2022-12-17T17:43:40;-0.10;99.90
45983;DHT22;31711;47.158;7.346;2022-12-17T17:46:16;-0.20;99.90
45983;DHT22;31711;47.158;7.346;2022-12-17T17:48:45;-0.20;99.90
45983;DHT22;31711;47.158;7.346;2022-12-17T17:51:16;-0.20;99.90
45983;DHT22;31711;47.158;7.346;2022-12-17T17:53:47;-0.20;99.90
45983;DHT22;31711;47.158;7.346;2022-12-17T17:56:16;-0.20;99.90
45983;DHT22;31711;47.158;7.346;2022-12-17T17:59:26;-0.20;99.90
45983;DHT22;31711;47.158;7.346;2022-12-17T18:01:35;-0.20;99.90
45983;DHT22;31711;47.158;7.346;2022-12-17T18:04:03;-0.20;99.90
45983;DHT22;31711;47.158;7.346;2022-12-17T18:06:29;-0.30;99.90
45983;DHT22;31711;47.158;7.346;2022-12-17T18:08:56;-0.30;99.90
45983;DHT22;31711;47.158;7.346;2022-12-17T18:11:24;-0.30;99.90
45983;DHT22;31711;47.158;7.346;2022-12-17T18:13:51;-0.30;99.90
45983;DHT22;31711;47.158;7.346;2022-12-17T18:18:46;-0.30;99.90
45983;DHT22;31711;47.158;7.346;2022-12-17T18:21:15;-0.30;99.90
45983;DHT22;31711;47.158;7.346;2022-12-17T18:23:42;-0.30;99.90
45983;DHT22;31711;47.158;7.346;2022-12-17T18:26:31;-0.30;99.90
45983;DHT22;31711;47.158;7.346;2022-12-17T18:28:58;-0.20;99.90
45983;DHT22;31711;47.158;7.346;2022-12-17T18:31:28;-0.20;99.90
45983;DHT22;31711;47.158;7.346;2022-12-17T18:34:01;-0.20;99.90
45983;DHT22;31711;47.158;7.346;2022-12-17T18:36:31;-0.30;99.90
45983;DHT22;31711;47.158;7.346;2022-12-17T18:39:02;-0.50;99.90
45983;DHT22;31711;47.158;7.346;2022-12-17T18:41:29;-0.50;99.90
45983;DHT22;31711;47.158;7.346;2022-12-17T18:44:14;-0.50;99.90
45983;DHT22;31711;47.158;7.346;2022-12-17T18:46:40;-0.50;99.90
45983;DHT22;31711;47.158;7.346;2022-12-17T18:49:09;-0.50;99.90
45983;DHT22;31711;47.158;7.346;2022-12-17T18:51:37;-0.50;99.90
45983;DHT22;31711;47.158;7.346;2022-12-17T18:54:05;-0.40;99.90
45983;DHT22;31711;47.158;7.346;2022-12-17T18:56:33;-0.30;99.90
45983;DHT22;31711;47.158;7.346;2022-12-17T18:58:59;-0.20;99.90
45983;DHT22;31711;47.158;7.346;2022-12-17T19:01:27;-0.20;99.90
45983;DHT22;31711;47.158;7.346;2022-12-17T19:03:54;-0.30;99.90
45983;DHT22;31711;47.158;7.346;2022-12-17T19:06:21;-0.30;99.90
45983;DHT22;31711;47.158;7.346;2022-12-17T19:08:47;-0.30;99.90
45983;DHT22;31711;47.158;7.346;2022-12-17T19:11:16;-0.20;99.90
45983;DHT22;31711;47.158;7.346;2022-12-17T19:13:43;-0.20;99.90
45983;DHT22;31711;47.158;7.346;2022-12-17T19:18:35;-0.10;99.90
45983;DHT22;31711;47.158;7.346;2022-12-17T19:21:01;-0.10;99.90
45983;DHT22;31711;47.158;7.346;2022-12-17T19:23:28;-0.10;99.90
45983;DHT22;31711;47.158;7.346;2022-12-17T19:25:55;-0.20;99.90
45983;DHT22;31711;47.158;7.346;2022-12-17T19:28:21;-0.10;99.90
45983;DHT22;31711;47.158;7.346;2022-12-17T19:30:47;-0.20;99.90
45983;DHT22;31711;47.158;7.346;2022-12-17T19:33:19;-0.20;99.90
45983;DHT22;31711;47.158;7.346;2022-12-17T19:35:45;-0.20;99.90
45983;DHT22;31711;47.158;7.346;2022-12-17T19:38:12;-0.10;99.90
45983;DHT22;31711;47.158;7.346;2022-12-17T19:40:38;-0.10;99.90
45983;DHT22;31711;47.158;7.346;2022-12-17T19:43:03;-0.20;99.90
45983;DHT22;31711;47.158;7.346;2022-12-17T19:45:30;-0.10;99.90
45983;DHT22;31711;47.158;7.346;2022-12-17T19:47:56;-0.10;99.90
45983;DHT22;31711;47.158;7.346;2022-12-17T19:50:22;-0.10;99.90
45983;DHT22;31711;47.158;7.346;2022-12-17T19:52:48;-0.10;99.90
45983;DHT22;31711;47.158;7.346;2022-12-17T19:55:17;-0.10;99.90
45983;DHT22;31711;47.158;7.346;2022-12-17T19:57:45;-0.10;99.90
45983;DHT22;31711;47.158;7.346;2022-12-17T20:00:11;-0.20;99.90
45983;DHT22;31711;47.158;7.346;2022-12-17T20:02:37;0.00;99.90
45983;DHT22;31711;47.158;7.346;2022-12-17T20:05:04;0.00;99.90
45983;DHT22;31711;47.158;7.346;2022-12-17T20:07:30;0.10;99.90
45983;DHT22;31711;47.158;7.346;2022-12-17T20:09:56;0.00;99.90
45983;DHT22;31711;47.158;7.346;2022-12-17T20:12:22;0.00;99.90
45983;DHT22;31711;47.158;7.346;2022-12-17T20:14:48;0.00;99.90
45983;DHT22;31711;47.158;7.346;2022-12-17T20:17:13;-0.10;99.90
45983;DHT22;31711;47.158;7.346;2022-12-17T20:19:39;-0.10;99.90
45983;DHT22;31711;47.158;7.346;2022-12-17T20:22:06;-0.20;99.90
45983;DHT22;31711;47.158;7.346;2022-12-17T20:24:32;-0.20;99.90
45983;DHT22;31711;47.158;7.346;2022-12-17T20:26:58;-0.20;99.90
45983;DHT22;31711;47.158;7.346;2022-12-17T20:29:25;-0.10;99.90
45983;DHT22;31711;47.158;7.346;2022-12-17T20:31:52;-0.10;99.90
45983;DHT22;31711;47.158;7.346;2022-12-17T20:34:18;-0.10;99.90
45983;DHT22;31711;47.158;7.346;2022-12-17T20:36:45;-0.10;99.90
45983;DHT22;31711;47.158;7.346;2022-12-17T20:39:11;-0.10;99.90
45983;DHT22;31711;47.158;7.346;2022-12-17T20:41:37;-0.10;99.90
45983;DHT22;31711;47.158;7.346;2022-12-17T20:44:06;-0.30;99.90
45983;DHT22;31711;47.158;7.346;2022-12-17T20:46:33;-0.30;99.90
45983;DHT22;31711;47.158;7.346;2022-12-17T20:49:02;-0.30;99.90
45983;DHT22;31711;47.158;7.346;2022-12-17T20:51:29;-0.20;99.90
45983;DHT22;31711;47.158;7.346;2022-12-17T20:53:57;-0.20;99.90
45983;DHT22;31711;47.158;7.346;2022-12-17T20:56:26;-0.40;99.90
45983;DHT22;31711;47.158;7.346;2022-12-17T20:58:53;-0.40;99.90
45983;DHT22;31711;47.158;7.346;2022-12-17T21:01:21;-0.50;99.90
45983;DHT22;31711;47.158;7.346;2022-12-17T21:03:48;-0.40;99.90
45983;DHT22;31711;47.158;7.346;2022-12-17T21:06:21;-0.40;99.90
45983;DHT22;31711;47.158;7.346;2022-12-17T21:08:48;-0.40;99.90
45983;DHT22;31711;47.158;7.346;2022-12-17T21:11:16;-0.40;99.90
45983;DHT22;31711;47.158;7.346;2022-12-17T21:13:43;-0.40;99.90
45983;DHT22;31711;47.158;7.346;2022-12-17T21:16:11;-0.50;99.90
45983;DHT22;31711;47.158;7.346;2022-12-17T21:18:37;-0.60;99.90
45983;DHT22;31711;47.158;7.346;2022-12-17T21:21:08;-0.60;99.90
45983;DHT22;31711;47.158;7.346;2022-12-17T21:23:38;-0.50;99.90
45983;DHT22;31711;47.158;7.346;2022-12-17T21:26:05;-0.50;99.90
45983;DHT22;31711;47.158;7.346;2022-12-17T21:28:33;-0.50;99.90
45983;DHT22;31711;47.158;7.346;2022-12-17T21:30:59;-0.50;99.90
45983;DHT22;31711;47.158;7.346;2022-12-17T21:33:25;-0.50;99.90
45983;DHT22;31711;47.158;7.346;2022-12-17T21:35:59;-0.60;99.90
45983;DHT22;31711;47.158;7.346;2022-12-17T21:38:26;-0.50;99.90
45983;DHT22;31711;47.158;7.346;2022-12-17T21:40:53;-0.60;99.90
45983;DHT22;31711;47.158;7.346;2022-12-17T21:43:19;-0.50;99.90
45983;DHT22;31711;47.158;7.346;2022-12-17T21:45:45;-0.50;99.90
45983;DHT22;31711;47.158;7.346;2022-12-17T21:48:11;-0.50;99.90
45983;DHT22;31711;47.158;7.346;2022-12-17T21:50:41;-0.50;99.90
45983;DHT22;31711;47.158;7.346;2022-12-17T21:53:08;-0.40;99.90
45983;DHT22;31711;47.158;7.346;2022-12-17T21:55:35;-0.40;99.90
45983;DHT22;31711;47.158;7.346;2022-12-17T21:58:02;-0.40;99.90
45983;DHT22;31711;47.158;7.346;2022-12-17T22:00:30;-0.30;99.90
45983;DHT22;31711;47.158;7.346;2022-12-17T22:02:56;-0.40;99.90
45983;DHT22;31711;47.158;7.346;2022-12-17T22:05:22;-0.40;99.90
45983;DHT22;31711;47.158;7.346;2022-12-17T22:07:48;-0.50;99.90
45983;DHT22;31711;47.158;7.346;2022-12-17T22:10:14;-0.50;99.90
45983;DHT22;31711;47.158;7.346;2022-12-17T22:12:40;-0.40;99.90
45983;DHT22;31711;47.158;7.346;2022-12-17T22:15:25;-0.40;99.90
45983;DHT22;31711;47.158;7.346;2022-12-17T22:17:52;-0.40;99.90
45983;DHT22;31711;47.158;7.346;2022-12-17T22:20:18;-0.40;99.90
45983;DHT22;31711;47.158;7.346;2022-12-17T22:22:44;-0.40;99.90
45983;DHT22;31711;47.158;7.346;2022-12-17T22:25:10;-0.40;99.90
45983;DHT22;31711;47.158;7.346;2022-12-17T22:27:37;-0.50;99.90
45983;DHT22;31711;47.158;7.346;2022-12-17T22:30:05;-0.50;99.90
45983;DHT22;31711;47.158;7.346;2022-12-17T22:32:49;-0.40;99.90
45983;DHT22;31711;47.158;7.346;2022-12-17T22:35:42;-0.30;99.90
45983;DHT22;31711;47.158;7.346;2022-12-17T22:38:11;-0.30;99.90
45983;DHT22;31711;47.158;7.346;2022-12-17T22:40:37;-0.20;99.90
45983;DHT22;31711;47.158;7.346;2022-12-17T22:43:03;-0.30;99.90
45983;DHT22;31711;47.158;7.346;2022-12-17T22:45:48;-0.30;99.90
45983;DHT22;31711;47.158;7.346;2022-12-17T22:48:15;-0.20;99.90
45983;DHT22;31711;47.158;7.346;2022-12-17T22:50:41;-0.20;99.90
45983;DHT22;31711;47.158;7.346;2022-12-17T22:53:08;-0.20;99.90
45983;DHT22;31711;47.158;7.346;2022-12-17T22:55:34;-0.10;99.90
45983;DHT22;31711;47.158;7.346;2022-12-17T22:58:01;-0.10;99.90
45983;DHT22;31711;47.158;7.346;2022-12-17T23:00:32;-0.10;99.90
45983;DHT22;31711;47.158;7.346;2022-12-17T23:02:59;0.00;99.90
45983;DHT22;31711;47.158;7.346;2022-12-17T23:05:26;-0.10;99.90
45983;DHT22;31711;47.158;7.346;2022-12-17T23:07:53;-0.10;99.90
45983;DHT22;31711;47.158;7.346;2022-12-17T23:10:20;-0.20;99.90
45983;DHT22;31711;47.158;7.346;2022-12-17T23:12:47;-0.20;99.90
45983;DHT22;31711;47.158;7.346;2022-12-17T23:15:24;-0.20;99.90
45983;DHT22;31711;47.158;7.346;2022-12-17T23:17:51;0.00;99.90
45983;DHT22;31711;47.158;7.346;2022-12-17T23:20:18;-0.10;99.90
45983;DHT22;31711;47.158;7.346;2022-12-17T23:22:44;-0.20;99.90
45983;DHT22;31711;47.158;7.346;2022-12-17T23:25:11;-0.30;99.90
45983;DHT22;31711;47.158;7.346;2022-12-17T23:27:38;-0.40;99.90
45983;DHT22;31711;47.158;7.346;2022-12-17T23:30:05;-0.20;99.90
45983;DHT22;31711;47.158;7.346;2022-12-17T23:32:31;-0.10;99.90
45983;DHT22;31711;47.158;7.346;2022-12-17T23:34:57;-0.30;99.90
45983;DHT22;31711;47.158;7.346;2022-12-17T23:37:23;-0.30;99.90
45983;DHT22;31711;47.158;7.346;2022-12-17T23:39:49;-0.30;99.90
45983;DHT22;31711;47.158;7.346;2022-12-17T23:42:15;-0.20;99.90
45983;DHT22;31711;47.158;7.346;2022-12-17T23:44:41;-0.10;99.90
45983;DHT22;31711;47.158;7.346;2022-12-17T23:47:07;-0.20;99.90
45983;DHT22;31711;47.158;7.346;2022-12-17T23:49:33;-0.30;99.90
45983;DHT22;31711;47.158;7.346;2022-12-17T23:51:59;-0.50;99.90
45983;DHT22;31711;47.158;7.346;2022-12-17T23:54:25;-0.60;99.90
45983;DHT22;31711;47.158;7.346;2022-12-17T23:56:51;-0.50;99.90
45983;DHT22;31711;47.158;7.346;2022-12-17T23:59:17;-0.60;99.90
